sensor_id;sensor_type;location;lat;lon;timestamp;temperature;humidity
14409;DHT22;7289;50.706;4.992;2023-05-19T00:01:28;8.00;99.90
14409;DHT22;7289;50.706;4.992;2023-05-19T00:03:58;8.10;99.90
14409;DHT22;7289;50.706;4.992;2023-05-19T00:06:30;8.10;99.90
14409;DHT22;7289;50.706;4.992;2023-05-19T00:09:01;8.10;99.90
14409;DHT22;7289;50.706;4.992;2023-05-19T00:11:31;8.00;99.90
14409;DHT22;7289;50.706;4.992;2023-05-19T00:14:00;8.00;99.90
14409;DHT22;7289;50.706;4.992;2023-05-19T00:16:29;7.90;99.90
14409;DHT22;7289;50.706;4.992;2023-05-19T00:18:58;7.90;99.90
14409;DHT22;7289;50.706;4.992;2023-05-19T00:21:27;7.90;99.90
14409;DHT22;7289;50.706;4.992;2023-05-19T00:23:56;7.90;99.90
14409;DHT22;7289;50.706;4.992;2023-05-19T00:26:25;7.90;99.90
14409;DHT22;7289;50.706;4.992;2023-05-19T00:29:00;7.80;99.90
14409;DHT22;7289;50.706;4.992;2023-05-19T00:31:28;7.80;99.90
14409;DHT22;7289;50.706;4.992;2023-05-19T00:33:57;7.80;99.90
14409;DHT22;7289;50.706;4.992;2023-05-19T00:36:26;7.70;99.90
14409;DHT22;7289;50.706;4.992;2023-05-19T00:38:55;7.70;99.90
14409;DHT22;7289;50.706;4.992;2023-05-19T00:41:23;7.70;99.90
14409;DHT22;7289;50.706;4.992;2023-05-19T00:43:52;7.60;99.90
14409;DHT22;7289;50.706;4.992;2023-05-19T00:46:22;7.60;99.90
14409;DHT22;7289;50.706;4.992;2023-05-19T00:48:51;7.60;99.90
14409;DHT22;7289;50.706;4.992;2023-05-19T00:51:19;7.60;99.90
14409;DHT22;7289;50.706;4.992;2023-05-19T00:53:48;7.50;99.90
14409;DHT22;7289;50.706;4.992;2023-05-19T00:56:18;7.50;99.90
14409;DHT22;7289;50.706;4.992;2023-05-19T00:58:50;7.50;99.90
14409;DHT22;7289;50.706;4.992;2023-05-19T01:01:19;7.50;99.90
14409;DHT22;7289;50.706;4.992;2023-05-19T01:03:50;7.50;99.90
14409;DHT22;7289;50.706;4.992;2023-05-19T01:06:18;7.40;99.90
14409;DHT22;7289;50.706;4.992;2023-05-19T01:08:50;7.40;99.90
14409;DHT22;7289;50.706;4.992;2023-05-19T01:11:19;7.30;99.90
14409;DHT22;7289;50.706;4.992;2023-05-19T01:13:48;7.30;99.90
14409;DHT22;7289;50.706;4.992;2023-05-19T01:16:23;7.30;99.90
14409;DHT22;7289;50.706;4.992;2023-05-19T01:18:59;7.30;99.90
14409;DHT22;7289;50.706;4.992;2023-05-19T01:21:50;7.20;99.90
14409;DHT22;7289;50.706;4.992;2023-05-19T01:24:40;7.30;99.90
14409;DHT22;7289;50.706;4.992;2023-05-19T01:27:28;7.20;99.90
14409;DHT22;7289;50.706;4.992;2023-05-19T01:30:29;7.20;99.90
14409;DHT22;7289;50.706;4.992;2023-05-19T01:33:00;7.20;99.90
14409;DHT22;7289;50.706;4.992;2023-05-19T01:35:30;7.10;99.90
14409;DHT22;7289;50.706;4.992;2023-05-19T01:38:00;7.20;99.90
14409;DHT22;7289;50.706;4.992;2023-05-19T01:40:31;7.20;99.90
14409;DHT22;7289;50.706;4.992;2023-05-19T01:43:01;7.10;99.90
14409;DHT22;7289;50.706;4.992;2023-05-19T01:45:33;7.10;99.90
14409;DHT22;7289;50.706;4.992;2023-05-19T01:48:03;7.00;99.90
14409;DHT22;7289;50.706;4.992;2023-05-19T01:50:38;7.00;99.90
14409;DHT22;7289;50.706;4.992;2023-05-19T01:53:06;7.00;99.90
14409;DHT22;7289;50.706;4.992;2023-05-19T01:55:41;7.00;99.90
14409;DHT22;7289;50.706;4.992;2023-05-19T01:58:16;6.90;99.90
14409;DHT22;7289;50.706;4.992;2023-05-19T02:00:51;6.90;99.90
14409;DHT22;7289;50.706;4.992;2023-05-19T02:03:36;6.90;99.90
14409;DHT22;7289;50.706;4.992;2023-05-19T02:06:15;6.80;99.90
14409;DHT22;7289;50.706;4.992;2023-05-19T02:08:53;6.80;99.90
14409;DHT22;7289;50.706;4.992;2023-05-19T02:11:37;6.70;99.90
14409;DHT22;7289;50.706;4.992;2023-05-19T02:14:08;6.70;99.90
14409;DHT22;7289;50.706;4.992;2023-05-19T02:16:44;6.70;99.90
14409;DHT22;7289;50.706;4.992;2023-05-19T02:19:21;6.60;99.90
14409;DHT22;7289;50.706;4.992;2023-05-19T02:21:49;6.60;99.90
14409;DHT22;7289;50.706;4.992;2023-05-19T02:24:20;6.60;99.90
14409;DHT22;7289;50.706;4.992;2023-05-19T02:26:50;6.70;99.90
14409;DHT22;7289;50.706;4.992;2023-05-19T02:29:19;6.60;99.90
14409;DHT22;7289;50.706;4.992;2023-05-19T02:31:50;6.60;99.90
14409;DHT22;7289;50.706;4.992;2023-05-19T02:34:19;6.70;99.90
14409;DHT22;7289;50.706;4.992;2023-05-19T02:36:48;6.60;99.90
14409;DHT22;7289;50.706;4.992;2023-05-19T02:39:16;6.60;99.90
14409;DHT22;7289;50.706;4.992;2023-05-19T02:41:46;6.60;99.90
14409;DHT22;7289;50.706;4.992;2023-05-19T02:44:14;6.50;99.90
14409;DHT22;7289;50.706;4.992;2023-05-19T02:46:43;6.50;99.90
14409;DHT22;7289;50.706;4.992;2023-05-19T02:49:13;6.40;99.90
14409;DHT22;7289;50.706;4.992;2023-05-19T02:51:41;6.50;99.90
14409;DHT22;7289;50.706;4.992;2023-05-19T02:54:10;6.50;99.90
14409;DHT22;7289;50.706;4.992;2023-05-19T02:56:39;6.40;99.90
14409;DHT22;7289;50.706;4.992;2023-05-19T02:59:07;6.40;99.90
14409;DHT22;7289;50.706;4.992;2023-05-19T03:01:35;6.40;99.90
14409;DHT22;7289;50.706;4.992;2023-05-19T03:04:06;6.40;99.90
14409;DHT22;7289;50.706;4.992;2023-05-19T03:06:36;6.30;99.90
14409;DHT22;7289;50.706;4.992;2023-05-19T03:09:05;6.30;99.90
14409;DHT22;7289;50.706;4.992;2023-05-19T03:11:33;6.30;99.90
14409;DHT22;7289;50.706;4.992;2023-05-19T03:14:02;6.30;99.90
14409;DHT22;7289;50.706;4.992;2023-05-19T03:16:30;6.20;99.90
14409;DHT22;7289;50.706;4.992;2023-05-19T03:19:00;6.20;99.90
14409;DHT22;7289;50.706;4.992;2023-05-19T03:21:28;6.20;99.90
14409;DHT22;7289;50.706;4.992;2023-05-19T03:23:59;6.20;99.90
14409;DHT22;7289;50.706;4.992;2023-05-19T03:26:28;6.10;99.90
14409;DHT22;7289;50.706;4.992;2023-05-19T03:28:57;6.10;99.90
14409;DHT22;7289;50.706;4.992;2023-05-19T03:31:25;6.10;99.90
14409;DHT22;7289;50.706;4.992;2023-05-19T03:33:54;6.00;99.90
14409;DHT22;7289;50.706;4.992;2023-05-19T03:36:23;6.00;99.90
14409;DHT22;7289;50.706;4.992;2023-05-19T03:38:52;6.10;99.90
14409;DHT22;7289;50.706;4.992;2023-05-19T03:41:22;6.00;99.90
14409;DHT22;7289;50.706;4.992;2023-05-19T03:43:51;6.00;99.90
14409;DHT22;7289;50.706;4.992;2023-05-19T03:46:19;5.90;99.90
14409;DHT22;7289;50.706;4.992;2023-05-19T03:49:11;5.90;99.90
14409;DHT22;7289;50.706;4.992;2023-05-19T03:51:58;5.90;99.90
14409;DHT22;7289;50.706;4.992;2023-05-19T03:54:46;5.90;99.90
14409;DHT22;7289;50.706;4.992;2023-05-19T03:57:16;5.90;99.90
14409;DHT22;7289;50.706;4.992;2023-05-19T03:59:46;5.80;99.90
14409;DHT22;7289;50.706;4.992;2023-05-19T04:02:15;5.80;99.90
14409;DHT22;7289;50.706;4.992;2023-05-19T04:04:43;5.80;99.90
14409;DHT22;7289;50.706;4.992;2023-05-19T04:07:12;5.90;99.90
14409;DHT22;7289;50.706;4.992;2023-05-19T04:09:41;5.90;99.90
14409;DHT22;7289;50.706;4.992;2023-05-19T04:12:09;5.80;99.90
14409;DHT22;7289;50.706;4.992;2023-05-19T04:14:39;5.90;99.90
14409;DHT22;7289;50.706;4.992;2023-05-19T04:17:09;5.90;99.90
14409;DHT22;7289;50.706;4.992;2023-05-19T04:19:37;5.80;99.90
14409;DHT22;7289;50.706;4.992;2023-05-19T04:22:06;5.90;99.90
14409;DHT22;7289;50.706;4.992;2023-05-19T04:24:34;5.90;99.90
14409;DHT22;7289;50.706;4.992;2023-05-19T04:27:03;6.00;99.90
14409;DHT22;7289;50.706;4.992;2023-05-19T04:29:31;6.00;99.90
14409;DHT22;7289;50.706;4.992;2023-05-19T04:32:03;6.00;99.90
14409;DHT22;7289;50.706;4.992;2023-05-19T04:34:33;6.10;99.90
14409;DHT22;7289;50.706;4.992;2023-05-19T04:37:02;6.10;99.90
14409;DHT22;7289;50.706;4.992;2023-05-19T04:39:33;6.20;99.90
14409;DHT22;7289;50.706;4.992;2023-05-19T04:42:05;6.20;99.90
14409;DHT22;7289;50.706;4.992;2023-05-19T04:44:35;6.30;99.90
14409;DHT22;7289;50.706;4.992;2023-05-19T04:47:07;6.30;99.90
14409;DHT22;7289;50.706;4.992;2023-05-19T04:49:36;6.40;99.90
14409;DHT22;7289;50.706;4.992;2023-05-19T04:52:06;6.40;99.90
14409;DHT22;7289;50.706;4.992;2023-05-19T04:54:39;6.50;99.90
14409;DHT22;7289;50.706;4.992;2023-05-19T04:57:10;6.50;99.90
14409;DHT22;7289;50.706;4.992;2023-05-19T04:59:39;6.60;99.90
14409;DHT22;7289;50.706;4.992;2023-05-19T05:02:09;6.80;99.90
14409;DHT22;7289;50.706;4.992;2023-05-19T05:04:37;6.80;99.90
14409;DHT22;7289;50.706;4.992;2023-05-19T05:07:08;6.90;99.90
14409;DHT22;7289;50.706;4.992;2023-05-19T05:09:37;7.00;99.90
14409;DHT22;7289;50.706;4.992;2023-05-19T05:12:07;7.10;99.90
14409;DHT22;7289;50.706;4.992;2023-05-19T05:14:39;7.10;99.90
14409;DHT22;7289;50.706;4.992;2023-05-19T05:17:11;7.30;99.90
14409;DHT22;7289;50.706;4.992;2023-05-19T05:19:41;7.40;99.90
14409;DHT22;7289;50.706;4.992;2023-05-19T05:22:10;7.50;99.90
14409;DHT22;7289;50.706;4.992;2023-05-19T05:24:39;7.70;99.90
14409;DHT22;7289;50.706;4.992;2023-05-19T05:27:08;7.80;99.90
14409;DHT22;7289;50.706;4.992;2023-05-19T05:29:36;7.90;99.90
14409;DHT22;7289;50.706;4.992;2023-05-19T05:32:07;8.10;99.90
14409;DHT22;7289;50.706;4.992;2023-05-19T05:34:37;8.20;99.90
14409;DHT22;7289;50.706;4.992;2023-05-19T05:37:07;8.40;99.90
14409;DHT22;7289;50.706;4.992;2023-05-19T05:39:36;8.50;99.90
14409;DHT22;7289;50.706;4.992;2023-05-19T05:42:05;8.60;99.90
14409;DHT22;7289;50.706;4.992;2023-05-19T05:44:35;8.70;99.90
14409;DHT22;7289;50.706;4.992;2023-05-19T05:47:05;8.70;99.90
14409;DHT22;7289;50.706;4.992;2023-05-19T05:49:35;8.80;99.90
14409;DHT22;7289;50.706;4.992;2023-05-19T05:52:07;8.90;99.90
14409;DHT22;7289;50.706;4.992;2023-05-19T05:54:43;9.00;99.90
14409;DHT22;7289;50.706;4.992;2023-05-19T05:57:15;9.10;99.90
14409;DHT22;7289;50.706;4.992;2023-05-19T05:59:44;9.30;99.90
14409;DHT22;7289;50.706;4.992;2023-05-19T06:02:13;9.50;99.90
14409;DHT22;7289;50.706;4.992;2023-05-19T06:04:42;9.70;99.90
14409;DHT22;7289;50.706;4.992;2023-05-19T06:07:12;9.80;99.90
14409;DHT22;7289;50.706;4.992;2023-05-19T06:09:41;9.90;99.90
14409;DHT22;7289;50.706;4.992;2023-05-19T06:12:09;9.90;99.90
14409;DHT22;7289;50.706;4.992;2023-05-19T06:14:44;10.00;99.90
14409;DHT22;7289;50.706;4.992;2023-05-19T06:17:18;10.20;99.90
14409;DHT22;7289;50.706;4.992;2023-05-19T06:19:46;10.30;99.90
14409;DHT22;7289;50.706;4.992;2023-05-19T06:22:16;10.40;99.90
14409;DHT22;7289;50.706;4.992;2023-05-19T06:24:45;10.50;99.90
14409;DHT22;7289;50.706;4.992;2023-05-19T06:27:13;10.70;99.90
14409;DHT22;7289;50.706;4.992;2023-05-19T06:29:41;10.70;99.90
14409;DHT22;7289;50.706;4.992;2023-05-19T06:32:12;10.90;99.90
14409;DHT22;7289;50.706;4.992;2023-05-19T06:34:41;11.00;99.90
14409;DHT22;7289;50.706;4.992;2023-05-19T06:37:09;11.00;99.90
14409;DHT22;7289;50.706;4.992;2023-05-19T06:39:39;10.90;99.90
14409;DHT22;7289;50.706;4.992;2023-05-19T06:42:07;11.10;99.90
14409;DHT22;7289;50.706;4.992;2023-05-19T06:44:49;11.10;99.90
14409;DHT22;7289;50.706;4.992;2023-05-19T06:47:18;11.30;99.90
14409;DHT22;7289;50.706;4.992;2023-05-19T06:49:47;11.40;99.90
14409;DHT22;7289;50.706;4.992;2023-05-19T06:52:24;11.60;99.90
14409;DHT22;7289;50.706;4.992;2023-05-19T06:54:55;11.70;99.90
14409;DHT22;7289;50.706;4.992;2023-05-19T06:57:23;11.80;99.90
14409;DHT22;7289;50.706;4.992;2023-05-19T06:59:52;11.90;99.90
14409;DHT22;7289;50.706;4.992;2023-05-19T07:02:22;12.10;99.90
14409;DHT22;7289;50.706;4.992;2023-05-19T07:04:50;12.30;99.90
14409;DHT22;7289;50.706;4.992;2023-05-19T07:07:21;12.30;99.90
14409;DHT22;7289;50.706;4.992;2023-05-19T07:09:50;12.40;99.90
14409;DHT22;7289;50.706;4.992;2023-05-19T07:12:21;12.20;99.90
14409;DHT22;7289;50.706;4.992;2023-05-19T07:14:51;12.30;99.90
14409;DHT22;7289;50.706;4.992;2023-05-19T07:17:20;12.60;99.90
14409;DHT22;7289;50.706;4.992;2023-05-19T07:19:49;12.90;99.90
14409;DHT22;7289;50.706;4.992;2023-05-19T07:22:17;12.90;99.90
14409;DHT22;7289;50.706;4.992;2023-05-19T07:24:45;13.00;99.90
14409;DHT22;7289;50.706;4.992;2023-05-19T07:27:16;13.10;99.90
14409;DHT22;7289;50.706;4.992;2023-05-19T07:29:46;13.30;99.90
14409;DHT22;7289;50.706;4.992;2023-05-19T07:32:14;13.20;99.90
14409;DHT22;7289;50.706;4.992;2023-05-19T07:34:42;13.30;99.90
14409;DHT22;7289;50.706;4.992;2023-05-19T07:37:11;13.50;99.90
14409;DHT22;7289;50.706;4.992;2023-05-19T07:39:40;13.60;99.90
14409;DHT22;7289;50.706;4.992;2023-05-19T07:42:08;13.60;99.90
14409;DHT22;7289;50.706;4.992;2023-05-19T07:44:37;13.70;99.90
14409;DHT22;7289;50.706;4.992;2023-05-19T07:47:06;13.80;99.90
14409;DHT22;7289;50.706;4.992;2023-05-19T07:49:35;13.90;99.90
14409;DHT22;7289;50.706;4.992;2023-05-19T07:52:03;14.10;99.90
14409;DHT22;7289;50.706;4.992;2023-05-19T07:54:32;14.10;99.90
14409;DHT22;7289;50.706;4.992;2023-05-19T07:57:00;14.20;99.90
14409;DHT22;7289;50.706;4.992;2023-05-19T07:59:28;14.30;99.90
14409;DHT22;7289;50.706;4.992;2023-05-19T08:01:57;14.40;99.90
14409;DHT22;7289;50.706;4.992;2023-05-19T08:04:27;14.40;99.90
14409;DHT22;7289;50.706;4.992;2023-05-19T08:06:56;14.50;99.60
14409;DHT22;7289;50.706;4.992;2023-05-19T08:09:24;14.70;99.30
14409;DHT22;7289;50.706;4.992;2023-05-19T08:11:52;14.80;98.90
14409;DHT22;7289;50.706;4.992;2023-05-19T08:14:21;14.90;99.20
14409;DHT22;7289;50.706;4.992;2023-05-19T08:16:49;15.00;99.00
14409;DHT22;7289;50.706;4.992;2023-05-19T08:19:18;15.10;98.50
14409;DHT22;7289;50.706;4.992;2023-05-19T08:21:48;15.30;99.10
14409;DHT22;7289;50.706;4.992;2023-05-19T08:24:16;15.40;98.50
14409;DHT22;7289;50.706;4.992;2023-05-19T08:26:44;15.30;98.60
14409;DHT22;7289;50.706;4.992;2023-05-19T08:29:13;15.50;98.60
14409;DHT22;7289;50.706;4.992;2023-05-19T08:31:41;15.50;98.40
14409;DHT22;7289;50.706;4.992;2023-05-19T08:34:09;15.50;97.70
14409;DHT22;7289;50.706;4.992;2023-05-19T08:36:38;15.70;98.20
14409;DHT22;7289;50.706;4.992;2023-05-19T08:39:08;15.80;97.40
14409;DHT22;7289;50.706;4.992;2023-05-19T08:41:36;15.80;97.80
14409;DHT22;7289;50.706;4.992;2023-05-19T08:44:05;16.00;97.70
14409;DHT22;7289;50.706;4.992;2023-05-19T08:46:34;16.20;97.30
14409;DHT22;7289;50.706;4.992;2023-05-19T08:49:08;16.20;97.30
14409;DHT22;7289;50.706;4.992;2023-05-19T08:51:44;16.00;96.50
14409;DHT22;7289;50.706;4.992;2023-05-19T08:54:17;16.00;97.20
14409;DHT22;7289;50.706;4.992;2023-05-19T08:56:46;16.10;95.40
14409;DHT22;7289;50.706;4.992;2023-05-19T08:59:16;16.10;95.60
14409;DHT22;7289;50.706;4.992;2023-05-19T09:01:45;16.10;95.40
14409;DHT22;7289;50.706;4.992;2023-05-19T09:04:14;16.20;95.50
14409;DHT22;7289;50.706;4.992;2023-05-19T09:06:43;16.40;96.20
14409;DHT22;7289;50.706;4.992;2023-05-19T09:09:12;16.30;93.70
14409;DHT22;7289;50.706;4.992;2023-05-19T09:11:45;16.40;93.60
14409;DHT22;7289;50.706;4.992;2023-05-19T09:14:14;16.50;92.80
14409;DHT22;7289;50.706;4.992;2023-05-19T09:16:42;16.40;94.50
14409;DHT22;7289;50.706;4.992;2023-05-19T09:19:15;16.50;93.90
14409;DHT22;7289;50.706;4.992;2023-05-19T09:21:44;16.70;94.70
14409;DHT22;7289;50.706;4.992;2023-05-19T09:24:12;16.90;94.20
14409;DHT22;7289;50.706;4.992;2023-05-19T09:26:41;16.90;91.10
14409;DHT22;7289;50.706;4.992;2023-05-19T09:29:12;16.80;90.00
14409;DHT22;7289;50.706;4.992;2023-05-19T09:31:46;16.70;90.50
14409;DHT22;7289;50.706;4.992;2023-05-19T09:34:16;16.70;91.00
14409;DHT22;7289;50.706;4.992;2023-05-19T09:36:45;16.90;91.60
14409;DHT22;7289;50.706;4.992;2023-05-19T09:39:16;17.00;90.70
14409;DHT22;7289;50.706;4.992;2023-05-19T09:41:44;17.10;87.40
14409;DHT22;7289;50.706;4.992;2023-05-19T09:44:20;16.90;88.40
14409;DHT22;7289;50.706;4.992;2023-05-19T09:46:49;17.00;90.30
14409;DHT22;7289;50.706;4.992;2023-05-19T09:49:19;17.10;90.80
14409;DHT22;7289;50.706;4.992;2023-05-19T09:51:49;17.20;87.50
14409;DHT22;7289;50.706;4.992;2023-05-19T09:54:19;17.30;89.80
14409;DHT22;7289;50.706;4.992;2023-05-19T09:56:56;17.30;88.20
14409;DHT22;7289;50.706;4.992;2023-05-19T09:59:28;17.30;90.80
14409;DHT22;7289;50.706;4.992;2023-05-19T10:02:00;17.30;84.60
14409;DHT22;7289;50.706;4.992;2023-05-19T10:04:29;17.50;88.00
14409;DHT22;7289;50.706;4.992;2023-05-19T10:06:58;17.50;85.90
14409;DHT22;7289;50.706;4.992;2023-05-19T10:09:27;17.50;85.70
14409;DHT22;7289;50.706;4.992;2023-05-19T10:11:57;17.40;86.20
14409;DHT22;7289;50.706;4.992;2023-05-19T10:14:27;17.50;88.20
14409;DHT22;7289;50.706;4.992;2023-05-19T10:16:57;17.30;84.20
14409;DHT22;7289;50.706;4.992;2023-05-19T10:19:27;17.40;85.40
14409;DHT22;7289;50.706;4.992;2023-05-19T10:21:56;17.40;85.80
14409;DHT22;7289;50.706;4.992;2023-05-19T10:24:25;17.50;83.40
14409;DHT22;7289;50.706;4.992;2023-05-19T10:26:55;17.50;85.70
14409;DHT22;7289;50.706;4.992;2023-05-19T10:29:30;17.60;87.50
14409;DHT22;7289;50.706;4.992;2023-05-19T10:32:03;17.90;86.70
14409;DHT22;7289;50.706;4.992;2023-05-19T10:35:00;18.00;83.70
14409;DHT22;7289;50.706;4.992;2023-05-19T10:37:38;18.00;85.00
14409;DHT22;7289;50.706;4.992;2023-05-19T10:40:11;18.00;85.00
14409;DHT22;7289;50.706;4.992;2023-05-19T10:43:01;18.00;84.60
14409;DHT22;7289;50.706;4.992;2023-05-19T10:45:39;18.10;85.60
14409;DHT22;7289;50.706;4.992;2023-05-19T10:48:10;18.20;85.60
14409;DHT22;7289;50.706;4.992;2023-05-19T10:50:39;18.40;82.10
14409;DHT22;7289;50.706;4.992;2023-05-19T10:53:13;18.10;84.00
14409;DHT22;7289;50.706;4.992;2023-05-19T10:55:45;18.00;85.10
14409;DHT22;7289;50.706;4.992;2023-05-19T10:58:14;18.00;83.20
14409;DHT22;7289;50.706;4.992;2023-05-19T11:00:44;18.10;84.80
14409;DHT22;7289;50.706;4.992;2023-05-19T11:03:13;18.10;85.20
14409;DHT22;7289;50.706;4.992;2023-05-19T11:05:42;18.20;84.50
14409;DHT22;7289;50.706;4.992;2023-05-19T11:08:11;18.30;84.90
14409;DHT22;7289;50.706;4.992;2023-05-19T11:10:43;18.30;85.10
14409;DHT22;7289;50.706;4.992;2023-05-19T11:13:18;18.40;84.80
14409;DHT22;7289;50.706;4.992;2023-05-19T11:15:51;18.30;82.70
14409;DHT22;7289;50.706;4.992;2023-05-19T11:18:19;18.30;83.50
14409;DHT22;7289;50.706;4.992;2023-05-19T11:20:54;18.40;84.60
14409;DHT22;7289;50.706;4.992;2023-05-19T11:23:25;18.60;84.20
14409;DHT22;7289;50.706;4.992;2023-05-19T11:25:53;18.80;86.10
14409;DHT22;7289;50.706;4.992;2023-05-19T11:28:22;18.80;82.90
14409;DHT22;7289;50.706;4.992;2023-05-19T11:30:56;18.80;82.90
14409;DHT22;7289;50.706;4.992;2023-05-19T11:33:26;18.70;82.40
14409;DHT22;7289;50.706;4.992;2023-05-19T11:35:55;18.40;81.70
14409;DHT22;7289;50.706;4.992;2023-05-19T11:38:25;18.50;82.90
14409;DHT22;7289;50.706;4.992;2023-05-19T11:40:55;18.50;80.40
14409;DHT22;7289;50.706;4.992;2023-05-19T11:43:24;18.70;81.20
14409;DHT22;7289;50.706;4.992;2023-05-19T11:45:53;18.80;82.70
14409;DHT22;7289;50.706;4.992;2023-05-19T11:48:23;18.90;83.60
14409;DHT22;7289;50.706;4.992;2023-05-19T11:50:53;19.10;79.20
14409;DHT22;7289;50.706;4.992;2023-05-19T11:53:22;19.10;81.80
14409;DHT22;7289;50.706;4.992;2023-05-19T11:55:51;19.10;81.70
14409;DHT22;7289;50.706;4.992;2023-05-19T11:58:24;19.20;82.50
14409;DHT22;7289;50.706;4.992;2023-05-19T12:00:53;19.20;82.40
14409;DHT22;7289;50.706;4.992;2023-05-19T12:03:24;19.20;80.90
14409;DHT22;7289;50.706;4.992;2023-05-19T12:05:54;19.00;81.80
14409;DHT22;7289;50.706;4.992;2023-05-19T12:08:23;19.00;83.30
14409;DHT22;7289;50.706;4.992;2023-05-19T12:10:53;19.20;84.00
14409;DHT22;7289;50.706;4.992;2023-05-19T12:13:22;19.10;83.10
14409;DHT22;7289;50.706;4.992;2023-05-19T12:15:50;19.30;81.60
14409;DHT22;7289;50.706;4.992;2023-05-19T12:18:19;19.50;80.60
14409;DHT22;7289;50.706;4.992;2023-05-19T12:20:49;19.60;79.20
14409;DHT22;7289;50.706;4.992;2023-05-19T12:23:18;19.80;79.80
14409;DHT22;7289;50.706;4.992;2023-05-19T12:25:47;19.60;80.60
14409;DHT22;7289;50.706;4.992;2023-05-19T12:28:16;19.80;81.20
14409;DHT22;7289;50.706;4.992;2023-05-19T12:30:47;19.90;80.00
14409;DHT22;7289;50.706;4.992;2023-05-19T12:33:18;19.90;80.20
14409;DHT22;7289;50.706;4.992;2023-05-19T12:35:49;19.90;80.80
14409;DHT22;7289;50.706;4.992;2023-05-19T12:38:18;19.90;78.40
14409;DHT22;7289;50.706;4.992;2023-05-19T12:40:48;19.70;80.30
14409;DHT22;7289;50.706;4.992;2023-05-19T12:43:21;19.80;74.50
14409;DHT22;7289;50.706;4.992;2023-05-19T12:45:49;20.10;77.30
14409;DHT22;7289;50.706;4.992;2023-05-19T12:48:20;20.20;77.70
14409;DHT22;7289;50.706;4.992;2023-05-19T12:50:52;20.20;78.80
14409;DHT22;7289;50.706;4.992;2023-05-19T12:53:21;20.50;78.20
14409;DHT22;7289;50.706;4.992;2023-05-19T12:55:51;20.40;78.50
14409;DHT22;7289;50.706;4.992;2023-05-19T12:58:20;20.40;79.00
14409;DHT22;7289;50.706;4.992;2023-05-19T13:00:49;20.60;78.10
14409;DHT22;7289;50.706;4.992;2023-05-19T13:03:19;21.00;78.40
14409;DHT22;7289;50.706;4.992;2023-05-19T13:05:49;21.30;77.20
14409;DHT22;7289;50.706;4.992;2023-05-19T13:08:20;21.30;78.30
14409;DHT22;7289;50.706;4.992;2023-05-19T13:10:50;21.30;75.00
14409;DHT22;7289;50.706;4.992;2023-05-19T13:13:18;21.40;76.80
14409;DHT22;7289;50.706;4.992;2023-05-19T13:15:47;21.50;73.50
14409;DHT22;7289;50.706;4.992;2023-05-19T13:18:16;21.60;75.10
14409;DHT22;7289;50.706;4.992;2023-05-19T13:20:45;21.40;73.20
14409;DHT22;7289;50.706;4.992;2023-05-19T13:23:16;21.20;75.50
14409;DHT22;7289;50.706;4.992;2023-05-19T13:25:45;21.10;74.30
14409;DHT22;7289;50.706;4.992;2023-05-19T13:28:14;21.00;77.40
14409;DHT22;7289;50.706;4.992;2023-05-19T13:30:43;21.00;74.50
14409;DHT22;7289;50.706;4.992;2023-05-19T13:33:12;21.20;76.20
14409;DHT22;7289;50.706;4.992;2023-05-19T13:35:40;21.30;76.10
14409;DHT22;7289;50.706;4.992;2023-05-19T13:38:09;21.30;74.40
14409;DHT22;7289;50.706;4.992;2023-05-19T13:40:37;21.00;74.10
14409;DHT22;7289;50.706;4.992;2023-05-19T13:43:07;20.90;75.80
14409;DHT22;7289;50.706;4.992;2023-05-19T13:45:36;21.00;76.50
14409;DHT22;7289;50.706;4.992;2023-05-19T13:48:05;21.10;76.90
14409;DHT22;7289;50.706;4.992;2023-05-19T13:50:34;21.20;76.20
14409;DHT22;7289;50.706;4.992;2023-05-19T13:53:03;21.30;75.20
14409;DHT22;7289;50.706;4.992;2023-05-19T13:55:31;21.50;76.30
14409;DHT22;7289;50.706;4.992;2023-05-19T13:57:59;21.70;77.70
14409;DHT22;7289;50.706;4.992;2023-05-19T14:00:30;21.70;74.60
14409;DHT22;7289;50.706;4.992;2023-05-19T14:02:59;21.70;73.20
14409;DHT22;7289;50.706;4.992;2023-05-19T14:05:28;21.70;72.00
14409;DHT22;7289;50.706;4.992;2023-05-19T14:07:57;21.50;71.90
14409;DHT22;7289;50.706;4.992;2023-05-19T14:10:27;21.40;71.60
14409;DHT22;7289;50.706;4.992;2023-05-19T14:12:55;21.20;71.30
14409;DHT22;7289;50.706;4.992;2023-05-19T14:15:47;21.10;73.60
14409;DHT22;7289;50.706;4.992;2023-05-19T14:18:15;21.30;73.40
14409;DHT22;7289;50.706;4.992;2023-05-19T14:20:43;21.10;71.90
14409;DHT22;7289;50.706;4.992;2023-05-19T14:23:12;21.10;75.40
14409;DHT22;7289;50.706;4.992;2023-05-19T14:25:41;21.30;74.10
14409;DHT22;7289;50.706;4.992;2023-05-19T14:28:09;21.20;73.40
14409;DHT22;7289;50.706;4.992;2023-05-19T14:30:38;21.20;75.00
14409;DHT22;7289;50.706;4.992;2023-05-19T14:33:08;21.30;71.80
14409;DHT22;7289;50.706;4.992;2023-05-19T14:35:37;21.10;73.10
14409;DHT22;7289;50.706;4.992;2023-05-19T14:38:06;21.10;72.20
14409;DHT22;7289;50.706;4.992;2023-05-19T14:40:35;20.90;72.10
14409;DHT22;7289;50.706;4.992;2023-05-19T14:43:03;21.10;72.90
14409;DHT22;7289;50.706;4.992;2023-05-19T14:45:32;21.00;71.60
14409;DHT22;7289;50.706;4.992;2023-05-19T14:48:01;21.00;73.50
14409;DHT22;7289;50.706;4.992;2023-05-19T14:50:31;21.10;72.90
14409;DHT22;7289;50.706;4.992;2023-05-19T14:52:59;21.20;72.50
14409;DHT22;7289;50.706;4.992;2023-05-19T14:55:28;21.10;72.20
14409;DHT22;7289;50.706;4.992;2023-05-19T14:57:56;21.10;72.60
14409;DHT22;7289;50.706;4.992;2023-05-19T15:00:24;21.20;73.30
14409;DHT22;7289;50.706;4.992;2023-05-19T15:02:53;21.20;73.10
14409;DHT22;7289;50.706;4.992;2023-05-19T15:05:22;21.20;70.70
14409;DHT22;7289;50.706;4.992;2023-05-19T15:07:52;21.30;73.70
14409;DHT22;7289;50.706;4.992;2023-05-19T15:10:20;21.50;73.60
14409;DHT22;7289;50.706;4.992;2023-05-19T15:12:50;21.60;71.10
14409;DHT22;7289;50.706;4.992;2023-05-19T15:15:19;21.60;73.30
14409;DHT22;7289;50.706;4.992;2023-05-19T15:17:48;21.70;75.00
14409;DHT22;7289;50.706;4.992;2023-05-19T15:20:16;21.70;72.10
14409;DHT22;7289;50.706;4.992;2023-05-19T15:22:44;21.80;75.10
14409;DHT22;7289;50.706;4.992;2023-05-19T15:25:14;21.70;69.70
14409;DHT22;7289;50.706;4.992;2023-05-19T15:27:43;21.50;72.10
14409;DHT22;7289;50.706;4.992;2023-05-19T15:30:12;21.40;74.10
14409;DHT22;7289;50.706;4.992;2023-05-19T15:32:40;21.40;72.30
14409;DHT22;7289;50.706;4.992;2023-05-19T15:35:09;21.50;71.90
14409;DHT22;7289;50.706;4.992;2023-05-19T15:37:37;21.40;70.00
14409;DHT22;7289;50.706;4.992;2023-05-19T15:40:07;21.50;72.90
14409;DHT22;7289;50.706;4.992;2023-05-19T15:42:37;21.50;74.40
14409;DHT22;7289;50.706;4.992;2023-05-19T15:45:07;21.50;71.50
14409;DHT22;7289;50.706;4.992;2023-05-19T15:47:35;21.60;73.00
14409;DHT22;7289;50.706;4.992;2023-05-19T15:50:04;21.60;71.00
14409;DHT22;7289;50.706;4.992;2023-05-19T15:52:33;21.60;72.60
14409;DHT22;7289;50.706;4.992;2023-05-19T15:55:01;21.70;70.50
14409;DHT22;7289;50.706;4.992;2023-05-19T15:57:29;21.60;71.50
14409;DHT22;7289;50.706;4.992;2023-05-19T15:59:59;21.40;72.80
14409;DHT22;7289;50.706;4.992;2023-05-19T16:02:28;21.20;72.00
14409;DHT22;7289;50.706;4.992;2023-05-19T16:04:56;21.20;70.90
14409;DHT22;7289;50.706;4.992;2023-05-19T16:07:25;21.10;71.40
14409;DHT22;7289;50.706;4.992;2023-05-19T16:09:53;21.10;71.50
14409;DHT22;7289;50.706;4.992;2023-05-19T16:12:21;21.30;70.90